createdAt,value
2024-02-22T00:00:15.696Z,1.40
2024-02-22T00:02:47.652Z,1.30
2024-02-22T00:05:16.818Z,1.13
2024-02-22T00:07:46.091Z,0.96
2024-02-22T00:10:15.463Z,0.87
2024-02-22T00:12:45.889Z,0.89
2024-02-22T00:15:15.152Z,0.93
2024-02-22T00:17:44.169Z,0.95
2024-02-22T00:20:17.397Z,0.98
2024-02-22T00:22:46.579Z,0.96
2024-02-22T00:25:18.722Z,0.85
2024-02-22T00:27:51.893Z,0.94
2024-02-22T00:30:24.097Z,0.95
2024-02-22T00:32:53.234Z,0.90
2024-02-22T00:35:22.227Z,0.97
2024-02-22T00:37:51.211Z,1.02
2024-02-22T00:40:20.207Z,1.01
2024-02-22T00:42:49.280Z,1.02
2024-02-22T00:45:21.118Z,0.98
2024-02-22T00:47:50.153Z,1.02
2024-02-22T00:50:19.588Z,1.14
2024-02-22T00:52:49.906Z,1.17
2024-02-22T00:55:18.030Z,1.47
2024-02-22T00:57:47.556Z,1.45
2024-02-22T01:00:17.485Z,1.33
2024-02-22T01:02:47.849Z,1.14
2024-02-22T01:05:16.908Z,1.02
2024-02-22T01:07:45.967Z,0.94
2024-02-22T01:10:15.085Z,1.18
2024-02-22T01:12:44.127Z,0.97
2024-02-22T01:15:14.166Z,0.97
2024-02-22T01:17:43.250Z,1.09
2024-02-22T01:20:14.182Z,1.37
2024-02-22T01:22:43.187Z,1.29
2024-02-22T01:25:12.919Z,0.98
2024-02-22T01:27:42.054Z,0.87
2024-02-22T01:30:12.016Z,0.91
2024-02-22T01:32:42.722Z,0.83
2024-02-22T01:35:13.219Z,0.79
2024-02-22T01:37:43.868Z,1.08
2024-02-22T01:40:13.785Z,1.04
2024-02-22T01:42:43.157Z,1.09
2024-02-22T01:45:12.729Z,1.00
2024-02-22T01:47:42.804Z,0.88
2024-02-22T01:50:14.221Z,0.88
2024-02-22T01:52:44.512Z,0.76
2024-02-22T01:55:15.967Z,0.64
2024-02-22T01:57:45.100Z,0.66
2024-02-22T02:00:18.799Z,0.63
2024-02-22T02:02:48.969Z,0.61
2024-02-22T02:05:20.031Z,0.55
2024-02-22T02:07:50.777Z,0.54
2024-02-22T02:10:19.840Z,0.59
2024-02-22T02:12:48.775Z,0.61
2024-02-22T02:15:17.715Z,0.72
2024-02-22T02:17:46.692Z,0.88
2024-02-22T02:20:16.851Z,0.83
2024-02-22T02:23:14.511Z,0.97
2024-02-22T02:25:45.709Z,0.97
2024-02-22T02:28:14.727Z,0.91
2024-02-22T02:30:43.660Z,0.86
2024-02-22T02:33:12.801Z,0.85
2024-02-22T02:35:41.830Z,0.97
2024-02-22T02:38:12.874Z,0.90
2024-02-22T02:40:42.015Z,0.81
2024-02-22T02:43:12.447Z,0.80
2024-02-22T02:45:41.653Z,0.89
2024-02-22T02:48:11.012Z,1.09
2024-02-22T02:50:39.979Z,1.06
2024-02-22T02:53:09.186Z,1.02
2024-02-22T02:55:38.206Z,0.89
2024-02-22T02:58:08.826Z,0.82
2024-02-22T03:00:39.156Z,0.78
2024-02-22T03:03:08.260Z,0.74
2024-02-22T03:05:40.399Z,0.82
2024-02-22T03:08:10.324Z,1.02
2024-02-22T03:10:39.382Z,1.20
2024-02-22T03:13:09.832Z,1.17
2024-02-22T03:15:40.432Z,1.11
2024-02-22T03:18:13.038Z,1.10
2024-02-22T03:20:42.418Z,0.94
2024-02-22T03:23:11.690Z,0.88
2024-02-22T03:25:42.365Z,0.84
2024-02-22T03:28:13.579Z,0.84
2024-02-22T03:30:43.935Z,0.81
2024-02-22T03:33:13.023Z,0.76
2024-02-22T03:35:42.036Z,0.71
2024-02-22T03:38:11.042Z,0.75
2024-02-22T03:40:41.219Z,0.79
2024-02-22T03:43:10.264Z,0.79
2024-02-22T03:45:40.209Z,0.81
2024-02-22T03:48:10.702Z,0.91
2024-02-22T03:50:39.680Z,0.81
2024-02-22T03:53:10.711Z,0.78
2024-02-22T03:55:39.836Z,0.80
2024-02-22T03:58:08.809Z,0.84
2024-02-22T04:00:37.852Z,0.88
2024-02-22T04:03:07.319Z,0.91
2024-02-22T04:05:37.726Z,0.77
2024-02-22T04:08:08.495Z,0.69
2024-02-22T04:10:37.995Z,0.72
2024-02-22T04:13:09.237Z,0.78
2024-02-22T04:15:38.853Z,0.82
2024-02-22T04:18:08.164Z,0.82
2024-02-22T04:20:38.500Z,0.94
2024-02-22T04:23:07.604Z,0.93
2024-02-22T04:25:36.939Z,0.96
2024-02-22T04:28:06.666Z,1.06
2024-02-22T04:30:35.590Z,1.25
2024-02-22T04:33:04.868Z,1.31
2024-02-22T04:35:34.037Z,1.38
2024-02-22T04:38:04.950Z,1.23
2024-02-22T04:40:33.986Z,1.17
2024-02-22T04:43:03.003Z,1.18
2024-02-22T04:45:32.044Z,1.13
2024-02-22T04:48:05.699Z,1.13
2024-02-22T04:50:35.644Z,1.08
2024-02-22T04:53:06.297Z,1.04
2024-02-22T04:55:35.322Z,1.03
2024-02-22T04:58:05.665Z,1.07
2024-02-22T05:00:35.860Z,1.09
2024-02-22T05:03:05.085Z,1.07
2024-02-22T05:05:34.264Z,1.28
2024-02-22T05:08:03.808Z,1.24
2024-02-22T05:10:35.555Z,1.17
2024-02-22T05:13:04.796Z,1.41
2024-02-22T05:15:33.721Z,1.19
2024-02-22T05:18:05.770Z,1.05
2024-02-22T05:20:36.648Z,0.96
2024-02-22T05:23:06.853Z,0.99
2024-02-22T05:25:37.245Z,0.90
2024-02-22T05:28:07.256Z,0.89
2024-02-22T05:30:36.256Z,1.12
2024-02-22T05:33:06.419Z,1.11
2024-02-22T05:35:35.696Z,1.05
2024-02-22T05:38:04.936Z,1.29
2024-02-22T05:40:33.995Z,1.19
2024-02-22T05:43:04.506Z,1.17
2024-02-22T05:45:42.775Z,1.18
2024-02-22T05:48:11.989Z,1.26
2024-02-22T05:50:40.966Z,1.15
2024-02-22T05:53:10.616Z,1.11
2024-02-22T05:55:39.881Z,1.10
2024-02-22T05:58:10.177Z,1.09
2024-02-22T06:00:39.515Z,1.13
2024-02-22T06:03:10.699Z,1.16
2024-02-22T06:05:40.611Z,1.30
2024-02-22T06:08:09.631Z,1.31
2024-02-22T06:10:38.598Z,1.35
2024-02-22T06:13:08.883Z,1.35
2024-02-22T06:15:38.027Z,1.38
2024-02-22T06:18:07.648Z,1.43
2024-02-22T06:20:36.881Z,1.44
2024-02-22T06:23:06.327Z,1.49
2024-02-22T06:25:37.056Z,1.51
2024-02-22T06:28:06.842Z,1.55
2024-02-22T06:30:37.105Z,1.62
2024-02-22T06:33:06.815Z,1.64
2024-02-22T06:35:36.353Z,1.70
2024-02-22T06:38:05.895Z,1.69
2024-02-22T06:40:34.936Z,1.70
2024-02-22T06:43:03.929Z,1.75
2024-02-22T06:45:33.067Z,1.84
2024-02-22T06:48:03.668Z,1.98
2024-02-22T06:50:32.708Z,2.02
2024-02-22T06:53:02.406Z,2.10
2024-02-22T06:55:32.678Z,2.31
2024-02-22T06:58:02.900Z,2.54
2024-02-22T07:00:34.310Z,2.73
2024-02-22T07:03:06.407Z,2.92
2024-02-22T07:05:36.141Z,2.99
2024-02-22T07:08:07.037Z,3.25
2024-02-22T07:10:36.307Z,3.45
2024-02-22T07:13:06.486Z,3.53
2024-02-22T07:15:35.393Z,3.80
2024-02-22T07:18:06.829Z,3.94
2024-02-22T07:20:35.839Z,4.16
2024-02-22T07:23:05.843Z,4.42
2024-02-22T07:25:35.776Z,4.63
2024-02-22T07:28:06.995Z,4.86
2024-02-22T07:30:36.037Z,4.94
2024-02-22T07:33:07.309Z,4.93
2024-02-22T07:35:36.658Z,4.79
2024-02-22T07:38:07.222Z,4.88
2024-02-22T07:40:36.397Z,5.24
2024-02-22T07:43:05.699Z,5.59
2024-02-22T07:45:34.698Z,5.79
2024-02-22T07:48:10.111Z,6.12
2024-02-22T07:50:41.071Z,6.33
2024-02-22T07:53:10.025Z,6.54
2024-02-22T07:55:40.256Z,6.76
2024-02-22T07:58:10.426Z,6.96
2024-02-22T08:00:39.717Z,7.12
2024-02-22T08:03:09.132Z,7.33
2024-02-22T08:05:38.348Z,7.46
2024-02-22T08:08:09.498Z,7.61
2024-02-22T08:10:39.138Z,7.74
2024-02-22T08:13:08.098Z,7.88
2024-02-22T08:15:37.094Z,8.05
2024-02-22T08:18:07.045Z,8.26
2024-02-22T08:20:38.612Z,8.52
2024-02-22T08:23:09.893Z,8.79
2024-02-22T08:25:39.104Z,8.94
2024-02-22T08:28:09.848Z,8.93
2024-02-22T08:30:39.066Z,9.25
2024-02-22T08:33:08.070Z,9.71
2024-02-22T08:35:37.345Z,9.83
2024-02-22T08:38:08.433Z,9.88
2024-02-22T08:40:40.177Z,10.03
2024-02-22T08:43:10.335Z,10.22
2024-02-22T08:45:39.762Z,10.23
2024-02-22T08:48:10.227Z,10.32
2024-02-22T08:50:39.512Z,10.25
2024-02-22T08:53:10.259Z,10.29
2024-02-22T08:55:39.339Z,10.44
2024-02-22T08:58:08.489Z,10.28
2024-02-22T09:00:37.499Z,10.64
2024-02-22T09:03:07.021Z,10.78
2024-02-22T09:05:37.195Z,10.99
2024-02-22T09:08:08.363Z,11.28
2024-02-22T09:10:38.912Z,11.53
2024-02-22T09:13:08.217Z,11.75
2024-02-22T09:15:37.155Z,11.78
2024-02-22T09:18:07.018Z,11.89
2024-02-22T09:20:36.375Z,12.05
2024-02-22T09:23:06.315Z,12.06
2024-02-22T09:25:36.255Z,12.23
2024-02-22T09:28:07.170Z,12.31
2024-02-22T09:30:36.265Z,12.36
2024-02-22T09:33:06.665Z,12.39
2024-02-22T09:35:35.966Z,12.44
2024-02-22T09:38:06.352Z,12.67
2024-02-22T09:40:35.560Z,12.87
2024-02-22T09:43:06.451Z,12.66
2024-02-22T09:45:35.716Z,12.47
2024-02-22T09:48:05.234Z,12.53
2024-02-22T09:50:34.604Z,12.53
2024-02-22T09:53:04.147Z,12.49
2024-02-22T09:55:33.407Z,12.50
2024-02-22T09:58:02.360Z,12.56
2024-02-22T10:00:33.206Z,12.61
2024-02-22T10:03:02.795Z,12.68
2024-02-22T10:05:38.789Z,12.67
2024-02-22T10:08:12.963Z,12.68
2024-02-22T10:10:42.476Z,12.68
2024-02-22T10:13:22.169Z,12.63
2024-02-22T10:15:52.914Z,12.61
2024-02-22T10:18:29.529Z,12.58
2024-02-22T10:20:59.204Z,12.63
2024-02-22T10:23:29.297Z,12.65
2024-02-22T10:26:05.533Z,12.66
2024-02-22T10:28:35.143Z,12.70
2024-02-22T10:31:06.309Z,12.74
2024-02-22T10:33:36.173Z,12.72
2024-02-22T10:36:07.640Z,12.60
2024-02-22T10:38:38.033Z,12.63
2024-02-22T10:41:11.699Z,12.53
2024-02-22T10:43:42.387Z,12.53
2024-02-22T10:46:13.385Z,12.54
2024-02-22T10:48:52.103Z,12.51
2024-02-22T10:51:24.254Z,12.46
2024-02-22T10:53:55.541Z,12.44
2024-02-22T10:56:26.471Z,12.39
2024-02-22T10:59:02.743Z,12.34
2024-02-22T11:01:34.370Z,12.06
2024-02-22T11:04:04.711Z,11.98
2024-02-22T11:06:41.367Z,11.98
2024-02-22T11:09:19.159Z,11.98
2024-02-22T11:11:50.160Z,11.87
2024-02-22T11:14:30.456Z,11.90
2024-02-22T11:17:06.333Z,11.74
2024-02-22T11:19:35.744Z,11.59
2024-02-22T11:22:17.879Z,11.51
2024-02-22T11:24:50.848Z,11.38
2024-02-22T11:27:20.602Z,11.35
2024-02-22T11:29:49.590Z,11.28
2024-02-22T11:32:22.476Z,11.18
2024-02-22T11:34:54.861Z,11.11
2024-02-22T11:37:24.632Z,10.93
2024-02-22T11:40:00.907Z,10.82
2024-02-22T11:42:30.893Z,10.68
2024-02-22T11:44:59.793Z,10.67
2024-02-22T11:47:34.333Z,10.44
2024-02-22T11:50:03.552Z,10.28
2024-02-22T11:52:32.506Z,10.25
2024-02-22T11:55:01.422Z,10.18
2024-02-22T11:57:30.644Z,10.11
2024-02-22T11:59:59.683Z,10.16
2024-02-22T12:02:30.883Z,10.14
2024-02-22T12:05:00.091Z,9.90
2024-02-22T12:07:29.871Z,9.74
2024-02-22T12:09:58.931Z,9.67
2024-02-22T12:12:28.463Z,9.65
2024-02-22T12:14:59.910Z,9.63
2024-02-22T12:17:30.661Z,9.68
2024-02-22T12:20:00.524Z,9.73
2024-02-22T12:22:31.205Z,9.81
2024-02-22T12:25:01.011Z,9.85
2024-02-22T12:27:30.390Z,9.84
2024-02-22T12:29:59.717Z,9.86
2024-02-22T12:32:30.165Z,9.87
2024-02-22T12:34:59.733Z,9.75
2024-02-22T12:37:29.548Z,9.72
2024-02-22T12:39:58.438Z,9.74
2024-02-22T12:42:27.604Z,9.72
2024-02-22T12:44:56.573Z,9.71
2024-02-22T12:47:26.136Z,9.68
2024-02-22T12:50:01.347Z,9.57
2024-02-22T12:52:30.458Z,9.52
2024-02-22T12:55:01.246Z,9.49
2024-02-22T12:57:30.179Z,9.54
2024-02-22T12:59:59.609Z,9.60
2024-02-22T13:02:28.585Z,9.76
2024-02-22T13:04:58.979Z,9.75
2024-02-22T13:07:28.093Z,9.87
2024-02-22T13:09:56.968Z,10.13
2024-02-22T13:12:26.016Z,10.38
2024-02-22T13:14:55.274Z,10.53
2024-02-22T13:17:24.258Z,10.85
2024-02-22T13:19:53.481Z,11.08
2024-02-22T13:22:23.976Z,11.26
2024-02-22T13:24:53.231Z,11.48
2024-02-22T13:27:22.236Z,11.73
2024-02-22T13:29:51.307Z,11.77
2024-02-22T13:32:20.706Z,12.13
2024-02-22T13:34:49.965Z,12.54
2024-02-22T13:37:19.669Z,13.03
2024-02-22T13:39:55.074Z,12.86
2024-02-22T13:42:27.357Z,12.78
2024-02-22T13:44:56.354Z,12.86
2024-02-22T13:47:26.734Z,12.84
2024-02-22T13:49:56.166Z,13.26
2024-02-22T13:52:25.974Z,14.25
2024-02-22T13:54:57.037Z,14.24
2024-02-22T13:57:28.148Z,13.78
2024-02-22T13:59:56.157Z,13.07
2024-02-22T14:02:25.171Z,12.27
2024-02-22T14:04:54.353Z,13.13
2024-02-22T14:07:23.569Z,14.45
2024-02-22T14:09:53.395Z,14.35
2024-02-22T14:12:23.775Z,14.86
2024-02-22T14:14:52.688Z,15.48
2024-02-22T14:17:25.834Z,16.93
2024-02-22T14:19:55.012Z,18.04
2024-02-22T14:22:24.012Z,18.42
2024-02-22T14:24:53.005Z,19.89
2024-02-22T14:27:29.639Z,19.66
2024-02-22T14:29:58.682Z,21.29
2024-02-22T14:32:28.747Z,18.39
2024-02-22T14:34:57.975Z,16.22
2024-02-22T14:37:27.080Z,15.09
2024-02-22T14:39:56.075Z,14.27
2024-02-22T14:42:27.131Z,14.02
2024-02-22T14:44:58.399Z,13.95
2024-02-22T14:47:27.590Z,13.69
2024-02-22T14:49:57.342Z,13.50
2024-02-22T14:52:26.328Z,13.46
2024-02-22T14:54:55.339Z,13.55
2024-02-22T14:57:24.557Z,13.44
2024-02-22T14:59:55.452Z,13.15
2024-02-22T15:02:25.827Z,13.30
2024-02-22T15:04:55.359Z,14.03
2024-02-22T15:07:27.176Z,13.97
2024-02-22T15:09:57.783Z,13.62
2024-02-22T15:12:26.748Z,13.44
2024-02-22T15:14:57.434Z,13.44
2024-02-22T15:17:26.666Z,13.40
2024-02-22T15:19:58.233Z,13.51
2024-02-22T15:22:27.576Z,13.21
2024-02-22T15:24:56.556Z,12.97
2024-02-22T15:27:27.661Z,12.70
2024-02-22T15:29:58.003Z,12.43
2024-02-22T15:32:39.721Z,12.21
2024-02-22T15:35:09.595Z,11.97
2024-02-22T15:37:38.755Z,11.77
2024-02-22T15:40:09.024Z,11.56
2024-02-22T15:42:38.529Z,11.45
2024-02-22T15:45:10.583Z,11.32
2024-02-22T15:47:39.591Z,11.24
2024-02-22T15:50:09.795Z,11.16
2024-02-22T15:52:38.818Z,11.13
2024-02-22T15:55:10.138Z,11.01
2024-02-22T15:57:39.238Z,10.93
2024-02-22T16:00:12.575Z,10.79
2024-02-22T16:02:41.755Z,10.87
2024-02-22T16:05:11.134Z,10.69
2024-02-22T16:07:42.597Z,10.45
2024-02-22T16:10:12.093Z,10.21
2024-02-22T16:12:42.245Z,10.27
2024-02-22T16:15:13.402Z,10.01
2024-02-22T16:17:42.351Z,9.87
2024-02-22T16:20:13.288Z,9.89
2024-02-22T16:22:42.299Z,9.71
2024-02-22T16:25:11.923Z,9.60
2024-02-22T16:27:42.871Z,9.50
2024-02-22T16:30:14.824Z,9.62
2024-02-22T16:32:44.101Z,9.48
2024-02-22T16:35:17.038Z,9.33
2024-02-22T16:37:47.124Z,9.25
2024-02-22T16:40:16.220Z,9.16
2024-02-22T16:42:46.359Z,9.35
2024-02-22T16:45:16.707Z,9.27
2024-02-22T16:47:46.015Z,9.35
2024-02-22T16:50:15.788Z,9.78
2024-02-22T16:52:44.742Z,9.88
2024-02-22T16:55:13.678Z,9.90
2024-02-22T16:57:42.636Z,9.92
2024-02-22T17:00:13.305Z,9.98
2024-02-22T17:02:44.842Z,9.93
2024-02-22T17:05:14.055Z,9.88
2024-02-22T17:07:43.861Z,10.01
2024-02-22T17:10:15.855Z,10.08
2024-02-22T17:12:44.984Z,10.00
2024-02-22T17:15:13.941Z,10.17
2024-02-22T17:17:47.361Z,10.28
2024-02-22T17:20:18.988Z,10.22
2024-02-22T17:22:48.241Z,10.11
2024-02-22T17:25:17.372Z,9.98
2024-02-22T17:27:46.276Z,10.08
2024-02-22T17:30:16.599Z,10.05
2024-02-22T17:32:46.937Z,10.17
2024-02-22T17:35:20.133Z,10.28
2024-02-22T17:37:49.285Z,10.36
2024-02-22T17:40:18.586Z,10.23
2024-02-22T17:42:47.536Z,10.47
2024-02-22T17:45:17.188Z,10.38
2024-02-22T17:47:47.561Z,10.48
2024-02-22T17:50:16.604Z,10.48
2024-02-22T17:52:45.564Z,10.42
2024-02-22T17:55:14.464Z,10.30
2024-02-22T17:57:43.660Z,10.52
2024-02-22T18:00:14.397Z,10.44
2024-02-22T18:02:45.893Z,10.45
2024-02-22T18:05:16.588Z,10.46
2024-02-22T18:07:45.606Z,10.43
2024-02-22T18:10:14.577Z,10.63
2024-02-22T18:12:43.795Z,10.56
2024-02-22T18:15:12.710Z,10.56
2024-02-22T18:17:41.781Z,10.69
2024-02-22T18:20:12.189Z,10.72
2024-02-22T18:22:42.529Z,10.75
2024-02-22T18:25:11.572Z,10.61
2024-02-22T18:27:40.505Z,10.57
2024-02-22T18:30:11.740Z,10.76
2024-02-22T18:32:40.642Z,10.64
2024-02-22T18:35:10.605Z,10.59
2024-02-22T18:37:42.179Z,10.55
2024-02-22T18:40:13.639Z,10.59
2024-02-22T18:42:43.599Z,10.63
2024-02-22T18:45:19.103Z,10.75
2024-02-22T18:47:48.559Z,10.78
2024-02-22T18:50:17.555Z,10.79
2024-02-22T18:52:47.144Z,10.75
2024-02-22T18:55:17.767Z,10.73
2024-02-22T18:57:46.744Z,10.70
2024-02-22T19:00:16.806Z,10.72
2024-02-22T19:02:45.794Z,10.65
2024-02-22T19:05:14.892Z,10.63
2024-02-22T19:07:45.023Z,10.59
2024-02-22T19:10:15.877Z,10.56
2024-02-22T19:12:46.236Z,10.47
2024-02-22T19:15:15.286Z,10.59
2024-02-22T19:17:44.385Z,10.58
2024-02-22T19:20:16.971Z,10.61
2024-02-22T19:22:46.998Z,10.60
2024-02-22T19:25:16.665Z,10.51
2024-02-22T19:27:47.818Z,10.46
2024-02-22T19:30:17.307Z,10.50
2024-02-22T19:32:47.555Z,10.69
2024-02-22T19:35:20.390Z,10.68
2024-02-22T19:37:51.723Z,10.56
2024-02-22T19:40:20.904Z,10.61
2024-02-22T19:42:51.173Z,10.51
2024-02-22T19:45:20.413Z,10.56
2024-02-22T19:47:49.414Z,10.60
2024-02-22T19:50:18.488Z,10.61
2024-02-22T19:52:47.454Z,10.48
2024-02-22T19:55:16.735Z,10.55
2024-02-22T19:57:45.700Z,10.62
2024-02-22T20:00:17.203Z,10.65
2024-02-22T20:02:47.306Z,10.59
2024-02-22T20:05:16.684Z,10.65
2024-02-22T20:07:45.845Z,10.66
2024-02-22T20:10:15.357Z,10.53
2024-02-22T20:12:44.316Z,10.55
2024-02-22T20:15:13.274Z,10.53
2024-02-22T20:17:44.615Z,10.61
2024-02-22T20:20:14.156Z,10.59
2024-02-22T20:22:43.084Z,10.62
2024-02-22T20:25:13.814Z,10.59
2024-02-22T20:27:43.564Z,10.67
2024-02-22T20:30:13.796Z,10.67
2024-02-22T20:32:44.341Z,10.58
2024-02-22T20:35:21.946Z,10.58
2024-02-22T20:37:54.803Z,10.60
2024-02-22T20:40:23.857Z,10.56
2024-02-22T20:42:53.166Z,10.44
2024-02-22T20:45:22.608Z,10.46
2024-02-22T20:47:53.357Z,10.43
2024-02-22T20:50:23.015Z,10.40
2024-02-22T20:52:52.503Z,10.29
2024-02-22T20:55:22.050Z,10.18
2024-02-22T20:57:51.063Z,10.20
2024-02-22T21:00:20.959Z,10.34
2024-02-22T21:02:49.848Z,10.37
2024-02-22T21:05:21.989Z,10.27
2024-02-22T21:07:51.103Z,10.23
2024-02-22T21:10:20.058Z,10.15
2024-02-22T21:12:49.182Z,10.15
2024-02-22T21:15:18.172Z,10.05
2024-02-22T21:17:47.349Z,10.18
2024-02-22T21:20:17.700Z,10.27
2024-02-22T21:22:47.993Z,10.30
2024-02-22T21:25:17.401Z,10.24
2024-02-22T21:27:46.337Z,10.26
2024-02-22T21:30:16.588Z,10.04
2024-02-22T21:32:47.173Z,10.00
2024-02-22T21:35:16.689Z,9.96
2024-02-22T21:37:47.545Z,10.00
2024-02-22T21:40:17.176Z,10.13
2024-02-22T21:42:47.273Z,10.19
2024-02-22T21:45:16.301Z,10.08
2024-02-22T21:47:45.477Z,10.17
2024-02-22T21:50:14.880Z,10.04
2024-02-22T21:52:44.174Z,9.94
2024-02-22T21:55:14.646Z,9.86
2024-02-22T21:57:43.952Z,9.96
2024-02-22T22:00:14.794Z,10.12
2024-02-22T22:02:43.715Z,10.30
2024-02-22T22:05:12.699Z,10.32
2024-02-22T22:07:41.815Z,10.26
2024-02-22T22:10:12.861Z,10.16
2024-02-22T22:12:43.880Z,10.18
2024-02-22T22:15:12.790Z,10.10
2024-02-22T22:17:41.808Z,10.22
2024-02-22T22:20:12.785Z,10.14
2024-02-22T22:22:41.800Z,10.31
2024-02-22T22:25:11.022Z,10.37
2024-02-22T22:27:40.050Z,10.40
2024-02-22T22:30:11.208Z,10.35
2024-02-22T22:32:40.349Z,10.29
2024-02-22T22:35:09.838Z,10.39
2024-02-22T22:37:38.805Z,10.35
2024-02-22T22:40:11.121Z,10.38
2024-02-22T22:42:41.371Z,10.43
2024-02-22T22:45:11.994Z,10.50
2024-02-22T22:47:41.627Z,10.44
2024-02-22T22:50:13.785Z,10.50
2024-02-22T22:52:44.645Z,10.61
2024-02-22T22:55:14.211Z,10.63
2024-02-22T22:57:43.331Z,10.58
2024-02-22T23:00:24.015Z,10.53
2024-02-22T23:02:53.462Z,10.68
2024-02-22T23:05:26.503Z,10.86
2024-02-22T23:07:55.681Z,10.86
2024-02-22T23:10:25.516Z,10.88
2024-02-22T23:12:54.551Z,10.87
2024-02-22T23:15:25.609Z,10.64
2024-02-22T23:17:54.642Z,10.53
2024-02-22T23:20:24.102Z,10.65
2024-02-22T23:22:53.238Z,10.68
2024-02-22T23:25:22.163Z,10.75
2024-02-22T23:27:51.131Z,10.81
2024-02-22T23:30:20.510Z,10.71
2024-02-22T23:32:50.865Z,10.75
2024-02-22T23:35:20.203Z,10.85
2024-02-22T23:37:49.274Z,10.79
2024-02-22T23:40:20.564Z,10.91
2024-02-22T23:42:49.505Z,11.00
2024-02-22T23:45:18.424Z,10.88
2024-02-22T23:47:47.354Z,11.00
2024-02-22T23:50:17.716Z,10.92
2024-02-22T23:52:46.748Z,10.94
2024-02-22T23:55:16.771Z,11.09
2024-02-22T23:57:45.666Z,11.06
